Time;durP1;ratioP1;P1;durP2;ratioP2;P2;SDS_P1;SDS_P2;PMS_P1;PMS_P2;Temp;Humidity;BMP_temperature;BMP_pressure;BME280_temperature;BME280_humidity;BME280_pressure;Samples;Min_cycle;Max_cycle;Signal;HPM_P1;HPM_P2
2024/01/16 00:02:11;;;;;;;14.07;6.45;;;-2.10;99.90;;;;;;5036115;28;20038;-63
2024/01/16 00:04:38;;;;;;;13.68;5.78;;;-2.10;99.90;;;;;;5034729;28;20041;-65
2024/01/16 00:07:04;;;;;;;9.90;6.07;;;-2.10;99.90;;;;;;5035982;28;20037;-63
2024/01/16 00:09:31;;;;;;;11.18;5.38;;;-2.20;99.90;;;;;;5035698;28;20037;-65
2024/01/16 00:11:58;;;;;;;12.40;6.57;;;-2.20;99.90;;;;;;5034470;28;20041;-65
2024/01/16 00:14:25;;;;;;;9.40;5.47;;;-2.20;99.90;;;;;;5035623;28;20049;-65
2024/01/16 00:16:52;;;;;;;10.93;5.90;;;-2.30;99.90;;;;;;5034741;28;20128;-65
2024/01/16 00:19:19;;;;;;;12.38;6.28;;;-2.30;99.90;;;;;;5035910;28;20061;-63
2024/01/16 00:21:46;;;;;;;13.90;6.10;;;-2.30;99.90;;;;;;5035605;28;20041;-63
2024/01/16 00:24:13;;;;;;;10.70;6.20;;;-2.30;99.90;;;;;;5035344;28;20053;-65
2024/01/16 00:26:40;;;;;;;12.13;5.65;;;-2.30;99.90;;;;;;5035699;28;20068;-65
2024/01/16 00:29:08;;;;;;;10.40;5.18;;;-2.30;99.90;;;;;;5035567;28;20042;-65
2024/01/16 00:31:35;;;;;;;11.35;5.72;;;-2.30;99.90;;;;;;5035430;28;20463;-65
2024/01/16 00:34:03;;;;;;;10.63;5.40;;;-2.30;99.90;;;;;;5035427;28;20068;-65
2024/01/16 00:36:30;;;;;;;11.10;5.45;;;-2.30;99.90;;;;;;5035617;28;20134;-65
2024/01/16 00:38:57;;;;;;;13.95;5.07;;;-2.30;99.90;;;;;;5033865;28;20056;-63
2024/01/16 00:41:24;;;;;;;10.30;5.10;;;-2.30;99.90;;;;;;5034464;28;20103;-64
2024/01/16 00:43:51;;;;;;;14.30;5.30;;;-2.30;99.90;;;;;;5035098;28;20050;-65
2024/01/16 00:46:17;;;;;;;10.27;5.45;;;-2.30;99.90;;;;;;5035050;28;20057;-65
2024/01/16 00:48:44;;;;;;;12.02;5.15;;;-2.30;99.90;;;;;;5035270;28;20058;-64
2024/01/16 00:51:11;;;;;;;10.73;5.10;;;-2.30;99.90;;;;;;5035163;28;20441;-64
2024/01/16 00:53:38;;;;;;;11.10;5.45;;;-2.30;99.90;;;;;;5033819;28;20132;-65
2024/01/16 00:56:05;;;;;;;10.95;4.90;;;-2.30;99.90;;;;;;5035013;28;20037;-65
2024/01/16 00:58:32;;;;;;;11.07;5.38;;;-2.30;99.90;;;;;;5034987;28;20037;-65
2024/01/16 01:00:58;;;;;;;13.00;5.65;;;-2.30;99.90;;;;;;5034619;28;20045;-65
2024/01/16 01:03:25;;;;;;;12.00;5.55;;;-2.30;99.90;;;;;;5034715;28;20080;-65
2024/01/16 01:05:52;;;;;;;14.65;7.55;;;-2.30;99.90;;;;;;5035078;28;20117;-64
2024/01/16 01:08:19;;;;;;;15.63;7.28;;;-2.30;99.90;;;;;;5035029;28;20049;-65
2024/01/16 01:10:46;;;;;;;14.63;6.57;;;-2.30;99.90;;;;;;5034740;28;20046;-65
2024/01/16 01:13:13;;;;;;;11.75;5.57;;;-2.20;99.90;;;;;;5034619;28;20099;-65
2024/01/16 01:15:39;;;;;;;11.77;5.90;;;-2.20;99.90;;;;;;5034556;28;20045;-64
2024/01/16 01:18:06;;;;;;;14.45;6.18;;;-2.20;99.90;;;;;;5034829;28;20045;-62
2024/01/16 01:20:34;;;;;;;11.82;5.35;;;-2.20;99.90;;;;;;5034403;28;20495;-62
2024/01/16 01:23:01;;;;;;;10.82;5.97;;;-2.20;99.90;;;;;;5034730;28;20404;-62
2024/01/16 01:25:28;;;;;;;8.05;5.05;;;-2.20;99.90;;;;;;5034555;28;20485;-62
2024/01/16 01:27:54;;;;;;;7.55;4.68;;;-2.10;99.90;;;;;;5034402;28;20111;-62
2024/01/16 01:30:21;;;;;;;11.65;5.00;;;-2.10;99.90;;;;;;5034466;28;20060;-62
2024/01/16 01:32:48;;;;;;;9.80;5.40;;;-2.10;99.90;;;;;;5033877;28;20037;-62
2024/01/16 01:35:15;;;;;;;11.40;5.43;;;-2.10;99.90;;;;;;5032397;28;20040;-63
2024/01/16 01:37:42;;;;;;;12.57;5.43;;;-2.00;99.90;;;;;;5033720;28;20095;-62
2024/01/16 01:40:08;;;;;;;10.35;4.90;;;-2.00;99.90;;;;;;5034048;28;20494;-62
2024/01/16 01:42:35;;;;;;;8.63;4.97;;;-2.00;99.90;;;;;;5033740;28;20120;-62
2024/01/16 01:45:02;;;;;;;10.95;4.95;;;-1.90;99.90;;;;;;5033654;28;20087;-62
2024/01/16 01:47:29;;;;;;;8.25;4.93;;;-1.90;99.90;;;;;;5033622;28;20476;-62
2024/01/16 01:49:57;;;;;;;14.30;5.45;;;-1.90;99.90;;;;;;5034025;28;20042;-61
2024/01/16 01:52:23;;;;;;;9.95;5.28;;;-1.80;99.90;;;;;;5033740;28;20034;-61
2024/01/16 01:54:50;;;;;;;12.13;5.60;;;-1.80;99.90;;;;;;5033906;28;20459;-61
2024/01/16 01:57:17;;;;;;;10.75;4.95;;;-1.80;99.90;;;;;;5033869;28;20046;-63
2024/01/16 01:59:43;;;;;;;10.77;5.18;;;-1.80;99.90;;;;;;5033552;28;20046;-64
2024/01/16 02:02:10;;;;;;;12.68;5.63;;;-1.80;99.90;;;;;;5033907;28;20064;-65
2024/01/16 02:04:37;;;;;;;8.63;5.55;;;-1.80;99.90;;;;;;5033757;28;20046;-64
2024/01/16 02:07:04;;;;;;;10.40;5.13;;;-1.80;99.90;;;;;;5033904;28;20113;-64
2024/01/16 02:09:31;;;;;;;11.13;5.10;;;-1.80;99.90;;;;;;5032676;28;20082;-64
2024/01/16 02:11:57;;;;;;;11.52;5.43;;;-1.80;99.90;;;;;;5032377;28;20112;-63
2024/01/16 02:14:24;;;;;;;10.50;5.30;;;-1.80;99.90;;;;;;5033544;28;20045;-65
2024/01/16 02:16:51;;;;;;;11.15;5.35;;;-1.80;99.90;;;;;;5033499;28;20394;-63
2024/01/16 02:19:18;;;;;;;9.32;5.40;;;-1.80;99.90;;;;;;5033458;28;20426;-63
2024/01/16 02:21:45;;;;;;;9.70;5.35;;;-1.80;99.90;;;;;;5033602;28;20065;-64
2024/01/16 02:24:16;;;;;;;11.77;5.57;;;-1.80;99.90;;;;;;5033821;28;20050;-62
2024/01/16 02:26:43;;;;;;;10.70;4.93;;;-1.90;99.90;;;;;;5033542;28;20049;-63
2024/01/16 02:29:10;;;;;;;8.80;5.25;;;-1.80;99.90;;;;;;5033455;28;20211;-63
2024/01/16 02:31:37;;;;;;;10.23;5.20;;;-1.90;99.90;;;;;;5032134;28;20045;-63
2024/01/16 02:34:04;;;;;;;14.05;5.05;;;-1.90;99.90;;;;;;5033301;28;20048;-60
2024/01/16 02:36:31;;;;;;;11.00;5.78;;;-1.90;99.90;;;;;;5032321;28;20041;-61
2024/01/16 02:38:58;;;;;;;12.68;5.18;;;-1.90;99.90;;;;;;5033337;28;20040;-65
2024/01/16 02:41:25;;;;;;;11.05;5.53;;;-1.90;99.90;;;;;;5033152;28;20466;-65
2024/01/16 02:43:52;;;;;;;8.85;4.43;;;-1.90;99.90;;;;;;5031799;28;20490;-65
2024/01/16 02:46:19;;;;;;;8.02;4.28;;;-1.90;99.90;;;;;;5033264;28;20057;-65
2024/01/16 02:48:46;;;;;;;9.00;4.03;;;-2.00;99.90;;;;;;5033225;28;20127;-65
2024/01/16 02:51:13;;;;;;;12.45;4.32;;;-2.00;99.90;;;;;;5033276;28;20076;-64
2024/01/16 02:53:40;;;;;;;9.93;4.75;;;-2.10;99.90;;;;;;5033060;28;20481;-64
2024/01/16 02:56:07;;;;;;;11.35;5.05;;;-2.10;99.90;;;;;;5032957;28;20049;-64
2024/01/16 02:58:34;;;;;;;10.10;4.97;;;-2.20;99.90;;;;;;5033110;28;20041;-64
2024/01/16 03:01:01;;;;;;;8.38;4.53;;;-2.30;99.90;;;;;;5033325;28;20033;-64
2024/01/16 03:03:28;;;;;;;8.52;4.55;;;-2.30;99.90;;;;;;5032919;28;20375;-64
2024/01/16 03:05:56;;;;;;;9.02;4.40;;;-2.30;99.90;;;;;;5036002;28;20136;-64
2024/01/16 03:08:23;;;;;;;9.00;5.03;;;-2.40;99.90;;;;;;5036985;28;20045;-64
2024/01/16 03:10:55;;;;;;;13.60;5.05;;;-2.40;99.90;;;;;;5036901;28;20041;-61
2024/01/16 03:13:26;;;;;;;8.88;4.75;;;-2.40;99.90;;;;;;5035494;28;20037;-62
2024/01/16 03:15:53;;;;;;;9.10;4.28;;;-2.40;99.90;;;;;;5036859;28;20090;-62
2024/01/16 03:18:20;;;;;;;9.65;4.68;;;-2.50;99.90;;;;;;5037160;28;20532;-62
2024/01/16 03:20:47;;;;;;;9.30;4.55;;;-2.50;99.90;;;;;;5035639;28;20054;-62
2024/01/16 03:23:14;;;;;;;9.43;4.60;;;-2.50;99.90;;;;;;5036513;28;20092;-61
2024/01/16 03:25:40;;;;;;;7.50;4.13;;;-2.50;99.90;;;;;;5036493;28;20045;-61
2024/01/16 03:28:07;;;;;;;6.65;4.03;;;-2.50;99.90;;;;;;5036838;28;20478;-61
2024/01/16 03:30:35;;;;;;;8.27;4.32;;;-2.60;99.90;;;;;;5036844;28;20355;-61
2024/01/16 03:33:02;;;;;;;9.40;4.90;;;-2.60;99.90;;;;;;5036393;28;20487;-62
2024/01/16 03:35:29;;;;;;;9.68;4.28;;;-2.60;99.90;;;;;;5035130;28;20475;-62
2024/01/16 03:37:56;;;;;;;13.93;5.05;;;-2.50;99.90;;;;;;5036519;28;20042;-62
2024/01/16 03:40:22;;;;;;;9.48;4.55;;;-2.50;99.90;;;;;;5036537;28;20046;-61
2024/01/16 03:42:49;;;;;;;7.57;4.85;;;-2.50;99.90;;;;;;5036356;28;20044;-61
2024/01/16 03:45:16;;;;;;;9.30;4.47;;;-2.50;99.90;;;;;;5036620;28;20057;-62
2024/01/16 03:47:44;;;;;;;6.45;3.70;;;-2.50;99.90;;;;;;5036491;28;20196;-61
2024/01/16 03:50:11;;;;;;;7.50;4.05;;;-2.50;99.90;;;;;;5036514;28;20037;-61
2024/01/16 03:52:38;;;;;;;11.93;4.50;;;-2.50;99.90;;;;;;5036083;28;20049;-61
2024/01/16 03:55:05;;;;;;;8.30;4.45;;;-2.50;99.90;;;;;;5034973;28;20104;-61
2024/01/16 03:57:32;;;;;;;8.73;3.90;;;-2.50;99.90;;;;;;5036336;28;20433;-61
2024/01/16 03:59:59;;;;;;;9.55;4.18;;;-2.50;99.90;;;;;;5035923;28;20045;-62
2024/01/16 04:02:26;;;;;;;10.20;4.63;;;-2.50;99.90;;;;;;5036115;28;20052;-61
2024/01/16 04:04:53;;;;;;;8.57;4.80;;;-2.60;99.90;;;;;;5035889;28;20034;-61
2024/01/16 04:07:19;;;;;;;10.18;4.95;;;-2.60;99.90;;;;;;5035564;28;20037;-62
2024/01/16 04:09:46;;;;;;;9.07;5.40;;;-2.60;99.90;;;;;;5035920;28;20045;-63
2024/01/16 04:12:13;;;;;;;11.60;5.60;;;-2.60;99.90;;;;;;5035673;28;20041;-63
2024/01/16 04:14:39;;;;;;;9.05;5.07;;;-2.60;99.90;;;;;;5035169;28;20034;-63
2024/01/16 04:17:07;;;;;;;8.68;5.20;;;-2.60;99.90;;;;;;5034449;28;20179;-62
2024/01/16 04:19:33;;;;;;;8.55;5.60;;;-2.60;99.90;;;;;;5035460;28;20049;-63
2024/01/16 04:22:01;;;;;;;8.80;4.95;;;-2.50;99.90;;;;;;5035828;28;20037;-61
2024/01/16 04:24:27;;;;;;;9.25;5.03;;;-2.60;99.90;;;;;;5035777;28;20050;-62
2024/01/16 04:26:54;;;;;;;9.73;5.57;;;-2.60;99.90;;;;;;5035832;28;20045;-61
2024/01/16 04:29:21;;;;;;;10.70;5.35;;;-2.60;99.90;;;;;;5035195;28;20534;-62
2024/01/16 04:31:48;;;;;;;8.88;5.32;;;-2.60;99.90;;;;;;5035651;28;20181;-63
2024/01/16 04:34:15;;;;;;;11.52;5.60;;;-2.60;99.90;;;;;;5035223;28;20450;-61
2024/01/16 04:36:42;;;;;;;10.27;5.72;;;-2.60;99.90;;;;;;5035383;28;20124;-62
2024/01/16 04:39:09;;;;;;;12.48;5.72;;;-2.60;99.90;;;;;;5035494;28;20541;-61
2024/01/16 04:41:36;;;;;;;9.85;4.85;;;-2.60;99.90;;;;;;5034976;28;20120;-63
2024/01/16 04:44:02;;;;;;;9.75;5.35;;;-2.60;99.90;;;;;;5035371;28;20073;-63
2024/01/16 04:46:29;;;;;;;9.77;5.28;;;-2.50;99.90;;;;;;5035506;28;20045;-63
2024/01/16 04:48:56;;;;;;;12.35;5.72;;;-2.50;99.90;;;;;;5035455;28;20056;-63
2024/01/16 04:51:23;;;;;;;11.45;4.82;;;-2.50;99.90;;;;;;5035080;28;20181;-63
2024/01/16 04:53:50;;;;;;;9.90;4.68;;;-2.50;99.90;;;;;;5035039;28;20037;-63
2024/01/16 04:56:16;;;;;;;12.48;5.30;;;-2.50;99.90;;;;;;5034951;28;20033;-63
2024/01/16 04:58:43;;;;;;;8.70;4.97;;;-2.50;99.90;;;;;;5034779;28;20191;-63
2024/01/16 05:01:10;;;;;;;9.60;5.50;;;-2.60;99.90;;;;;;5033553;28;20453;-63
2024/01/16 05:03:37;;;;;;;8.38;5.03;;;-2.60;99.90;;;;;;5034840;28;20037;-63
2024/01/16 05:06:04;;;;;;;9.48;5.18;;;-2.70;99.90;;;;;;5034644;28;20065;-63
2024/01/16 05:08:31;;;;;;;12.40;5.28;;;-2.70;99.90;;;;;;5034940;28;20117;-63
2024/01/16 05:10:58;;;;;;;11.07;5.32;;;-2.70;99.90;;;;;;5034684;28;20037;-63
2024/01/16 05:13:24;;;;;;;8.93;5.22;;;-2.70;99.90;;;;;;5034678;28;20044;-61
2024/01/16 05:15:51;;;;;;;9.23;5.05;;;-2.70;99.90;;;;;;5034744;28;20049;-62
2024/01/16 05:18:19;;;;;;;8.80;4.90;;;-2.70;99.90;;;;;;5034386;28;20460;-61
2024/01/16 05:20:46;;;;;;;8.98;5.30;;;-2.70;99.90;;;;;;5034621;28;20561;-61
2024/01/16 05:23:13;;;;;;;11.60;5.28;;;-2.70;99.90;;;;;;5034471;28;20389;-63
2024/01/16 05:25:40;;;;;;;10.05;5.05;;;-2.70;99.90;;;;;;5032860;28;20545;-63
2024/01/16 05:28:07;;;;;;;8.32;4.60;;;-2.80;99.90;;;;;;5034563;28;20045;-63
2024/01/16 05:30:34;;;;;;;9.60;4.50;;;-2.80;99.90;;;;;;5033169;28;20045;-63
2024/01/16 05:33:00;;;;;;;8.43;4.65;;;-2.80;99.90;;;;;;5034386;28;20414;-63
2024/01/16 05:35:28;;;;;;;10.80;5.95;;;-2.90;99.90;;;;;;5034371;28;20055;-62
2024/01/16 05:37:59;;;;;;;8.27;4.93;;;-2.90;99.90;;;;;;5034067;28;20041;-63
2024/01/16 05:40:26;;;;;;;8.32;5.15;;;-2.90;99.90;;;;;;5034541;28;20124;-63
2024/01/16 05:42:52;;;;;;;12.13;5.28;;;-3.00;99.90;;;;;;5034041;28;20092;-61
2024/01/16 05:45:19;;;;;;;10.32;4.88;;;-3.00;99.90;;;;;;5033986;28;20048;-61
2024/01/16 05:47:46;;;;;;;13.18;5.88;;;-3.00;99.90;;;;;;5032698;28;20379;-61
2024/01/16 05:50:13;;;;;;;10.32;5.40;;;-3.00;99.90;;;;;;5034488;28;20157;-61
2024/01/16 05:52:40;;;;;;;9.95;4.95;;;-3.00;99.90;;;;;;5034877;28;20065;-61
2024/01/16 05:55:10;;;;;;;11.43;5.50;;;-3.10;99.90;;;;;;5034329;28;20069;-61
2024/01/16 05:57:37;;;;;;;9.20;5.03;;;-3.10;99.90;;;;;;5033908;28;20084;-61
2024/01/16 06:00:05;;;;;;;9.88;5.05;;;-3.10;99.90;;;;;;5034084;28;20044;-62
2024/01/16 06:02:32;;;;;;;9.85;4.85;;;-3.10;99.90;;;;;;5033366;28;20044;-61
2024/01/16 06:05:01;;;;;;;8.85;5.55;;;-3.10;99.90;;;;;;5033666;28;20052;-61
2024/01/16 06:07:28;;;;;;;9.77;5.68;;;-3.00;99.90;;;;;;5033568;28;20128;-61
2024/01/16 06:09:54;;;;;;;9.20;5.50;;;-3.10;99.90;;;;;;5033466;28;20080;-61
2024/01/16 06:12:21;;;;;;;9.98;6.35;;;-3.10;99.90;;;;;;5032153;28;20045;-62
2024/01/16 06:14:48;;;;;;;8.63;5.07;;;-3.10;99.90;;;;;;5033442;28;20049;-61
2024/01/16 06:17:15;;;;;;;9.55;6.03;;;-3.10;99.90;;;;;;5033238;28;20124;-61
2024/01/16 06:19:42;;;;;;;12.35;6.00;;;-3.10;99.90;;;;;;5033385;28;20511;-62
2024/01/16 06:22:09;;;;;;;9.35;5.88;;;-3.10;99.90;;;;;;5033615;28;20143;-62
2024/01/16 06:24:37;;;;;;;9.73;5.18;;;-3.10;99.90;;;;;;5032110;28;20053;-64
2024/01/16 06:27:04;;;;;;;9.38;5.28;;;-3.10;99.90;;;;;;5033005;28;20565;-62
2024/01/16 06:29:31;;;;;;;9.23;5.20;;;-3.10;99.90;;;;;;5033090;28;20045;-62
2024/01/16 06:32:01;;;;;;;9.43;5.85;;;-3.10;99.90;;;;;;5033349;28;20482;-64
2024/01/16 06:34:28;;;;;;;7.57;4.65;;;-3.10;99.90;;;;;;5032697;28;20045;-65
2024/01/16 06:36:55;;;;;;;9.95;5.22;;;-3.00;99.90;;;;;;5032877;28;20037;-65
2024/01/16 06:39:22;;;;;;;9.93;5.10;;;-2.90;99.90;;;;;;5031620;28;20099;-65
2024/01/16 06:41:49;;;;;;;8.63;5.05;;;-2.90;99.90;;;;;;5030330;28;20029;-65
2024/01/16 06:44:16;;;;;;;10.82;5.40;;;-2.90;99.90;;;;;;5032305;28;20433;-65
2024/01/16 06:46:43;;;;;;;9.68;5.55;;;-2.80;99.90;;;;;;5032865;28;20448;-64
2024/01/16 06:49:09;;;;;;;8.85;5.05;;;-2.80;99.90;;;;;;5033160;28;20046;-66
2024/01/16 06:51:37;;;;;;;13.05;5.95;;;-2.70;99.90;;;;;;5033100;28;20099;-66
2024/01/16 06:54:03;;;;;;;7.53;5.60;;;-2.70;99.90;;;;;;5032848;28;20498;-65
2024/01/16 06:56:30;;;;;;;9.55;5.97;;;-2.70;99.90;;;;;;5032649;28;20431;-65
2024/01/16 06:59:00;;;;;;;12.27;5.13;;;-2.70;99.90;;;;;;5032725;28;20037;-65
2024/01/16 07:01:26;;;;;;;9.18;5.22;;;-2.60;99.90;;;;;;5033448;28;20037;-65
2024/01/16 07:03:53;;;;;;;9.90;5.05;;;-2.70;99.90;;;;;;5032959;28;20056;-66
2024/01/16 07:06:20;;;;;;;9.30;5.13;;;-2.70;99.90;;;;;;5033438;28;20063;-65
2024/01/16 07:08:47;;;;;;;10.82;5.63;;;-2.60;99.90;;;;;;5032920;28;20103;-65
2024/01/16 07:11:14;;;;;;;10.20;5.10;;;-2.70;99.90;;;;;;5031793;28;20053;-65
2024/01/16 07:13:41;;;;;;;10.70;5.13;;;-2.70;99.90;;;;;;5032761;28;20049;-65
2024/01/16 07:16:08;;;;;;;9.45;5.05;;;-2.60;99.90;;;;;;5032908;28;20037;-65
2024/01/16 07:18:34;;;;;;;8.75;4.07;;;-2.70;99.90;;;;;;5031514;28;20037;-63
2024/01/16 07:21:03;;;;;;;8.93;3.58;;;-2.60;99.90;;;;;;5032869;28;20046;-62
2024/01/16 07:23:30;;;;;;;8.05;3.20;;;-2.60;99.90;;;;;;5033014;28;20041;-63
2024/01/16 07:25:57;;;;;;;7.40;3.35;;;-2.70;99.90;;;;;;5032755;28;20440;-63
2024/01/16 07:28:23;;;;;;;7.15;3.75;;;-2.70;99.90;;;;;;5033009;28;20033;-64
2024/01/16 07:30:50;;;;;;;10.00;3.38;;;-2.70;99.90;;;;;;5033006;28;20378;-63
2024/01/16 07:33:17;;;;;;;12.45;3.83;;;-2.70;99.90;;;;;;5032338;28;20040;-62
2024/01/16 07:35:47;;;;;;;7.68;3.72;;;-2.70;99.90;;;;;;5032846;28;20502;-62
2024/01/16 07:38:14;;;;;;;8.63;3.63;;;-2.80;99.90;;;;;;5031819;28;20053;-63
2024/01/16 07:40:41;;;;;;;9.00;4.90;;;-2.80;99.90;;;;;;5032871;28;20381;-62
2024/01/16 07:43:08;;;;;;;9.43;4.55;;;-2.90;99.90;;;;;;5032610;28;20046;-62
2024/01/16 07:45:35;;;;;;;8.65;4.28;;;-2.90;99.90;;;;;;5031478;28;20466;-62
2024/01/16 07:48:02;;;;;;;11.20;5.65;;;-2.90;99.90;;;;;;5032634;28;20069;-62
2024/01/16 07:50:28;;;;;;;10.02;5.47;;;-2.90;99.90;;;;;;5034250;28;20128;-62
2024/01/16 07:52:55;;;;;;;12.27;6.18;;;-2.90;99.90;;;;;;5036472;28;20064;-62
2024/01/16 07:55:22;;;;;;;31.17;7.43;;;-2.90;99.90;;;;;;5035998;28;20050;-62
2024/01/16 07:57:51;;;;;;;13.73;5.95;;;-2.90;99.90;;;;;;5036213;28;20378;-62
2024/01/16 08:00:17;;;;;;;12.40;6.90;;;-3.00;99.90;;;;;;5035915;28;20046;-63
2024/01/16 08:02:44;;;;;;;11.38;6.47;;;-3.00;99.90;;;;;;5036136;28;20451;-63
2024/01/16 08:05:11;;;;;;;11.10;6.72;;;-2.90;99.90;;;;;;5035573;28;20045;-62
2024/01/16 08:07:38;;;;;;;14.57;6.78;;;-3.00;99.90;;;;;;5035933;28;20069;-62
2024/01/16 08:10:05;;;;;;;11.00;7.05;;;-2.90;99.90;;;;;;5034389;28;20064;-62
2024/01/16 08:12:31;;;;;;;13.40;7.40;;;-3.00;99.90;;;;;;5034663;28;20081;-63
2024/01/16 08:14:58;;;;;;;11.07;7.10;;;-2.90;99.90;;;;;;5035538;28;20046;-62
2024/01/16 08:17:25;;;;;;;14.65;6.93;;;-3.00;99.90;;;;;;5035861;28;20033;-62
2024/01/16 08:19:52;;;;;;;14.43;6.47;;;-3.00;99.90;;;;;;5035379;28;20045;-63
2024/01/16 08:22:19;;;;;;;12.50;6.95;;;-3.00;99.90;;;;;;5035498;28;20041;-67
2024/01/16 08:24:46;;;;;;;12.23;6.78;;;-3.00;99.90;;;;;;5035491;28;20049;-66
2024/01/16 08:27:13;;;;;;;13.65;6.00;;;-3.00;99.90;;;;;;5035402;28;20099;-66
2024/01/16 08:29:39;;;;;;;11.57;6.18;;;-3.00;99.90;;;;;;5035727;28;20046;-66
2024/01/16 08:32:06;;;;;;;11.80;6.00;;;-2.90;99.90;;;;;;5034125;28;20124;-66
2024/01/16 08:34:33;;;;;;;11.57;5.97;;;-2.90;99.90;;;;;;5035075;28;20038;-66
2024/01/16 08:37:00;;;;;;;11.90;6.18;;;-2.90;99.90;;;;;;5017624;28;20044;-66
2024/01/16 08:39:27;;;;;;;12.85;6.50;;;-2.90;99.90;;;;;;5035336;28;20096;-67
2024/01/16 08:41:54;;;;;;;14.50;6.60;;;-2.90;99.90;;;;;;5035254;28;20556;-66
2024/01/16 08:44:21;;;;;;;13.70;6.50;;;-2.80;99.90;;;;;;5034905;28;20136;-66
2024/01/16 08:46:48;;;;;;;11.38;5.43;;;-2.80;99.90;;;;;;5035471;28;20049;-66
2024/01/16 08:49:15;;;;;;;12.90;5.63;;;-2.70;99.90;;;;;;5035238;28;20061;-66
2024/01/16 08:51:46;;;;;;;11.93;6.25;;;-2.70;99.90;;;;;;5035439;28;20049;-66
2024/01/16 08:54:13;;;;;;;13.98;6.15;;;-2.70;99.90;;;;;;5035061;28;20041;-66
2024/01/16 08:56:40;;;;;;;12.10;5.93;;;-2.70;99.90;;;;;;5034607;28;20548;-66
2024/01/16 08:59:08;;;;;;;10.80;6.57;;;-2.70;99.90;;;;;;5034722;28;20037;-66
2024/01/16 09:01:35;;;;;;;13.35;6.45;;;-2.60;99.90;;;;;;5034227;28;20041;-66
2024/01/16 09:04:01;;;;;;;18.23;7.07;;;-2.60;99.90;;;;;;5034558;28;20037;-66
2024/01/16 09:06:28;;;;;;;12.65;6.18;;;-2.60;99.90;;;;;;5034856;28;20083;-66
2024/01/16 09:08:55;;;;;;;16.13;6.57;;;-2.50;99.90;;;;;;5034343;28;20129;-66
2024/01/16 09:11:22;;;;;;;15.45;7.00;;;-2.50;99.90;;;;;;5034605;28;20046;-66
2024/01/16 09:13:49;;;;;;;13.25;5.93;;;-2.40;99.90;;;;;;5034008;28;20041;-66
2024/01/16 09:16:16;;;;;;;12.02;5.85;;;-2.30;99.90;;;;;;5034657;28;20045;-66
2024/01/16 09:18:43;;;;;;;13.13;4.35;;;-2.20;99.90;;;;;;5034564;28;20050;-66
2024/01/16 09:21:10;;;;;;;12.25;3.80;;;-2.20;99.90;;;;;;5034669;28;20108;-66
2024/01/16 09:23:37;;;;;;;9.90;3.05;;;-2.10;99.90;;;;;;5034466;28;20048;-66
2024/01/16 09:26:04;;;;;;;6.80;2.88;;;-2.00;99.90;;;;;;5034671;28;20037;-66
2024/01/16 09:28:30;;;;;;;6.28;3.15;;;-2.00;99.90;;;;;;5034652;28;20107;-66
2024/01/16 09:30:58;;;;;;;6.25;2.90;;;-1.90;99.90;;;;;;5034270;28;20049;-66
2024/01/16 09:33:27;;;;;;;6.13;3.22;;;-1.80;99.90;;;;;;5034532;28;20124;-66
2024/01/16 09:35:54;;;;;;;5.82;3.03;;;-1.80;99.90;;;;;;5033054;28;20045;-66
2024/01/16 09:38:21;;;;;;;6.57;3.20;;;-1.80;99.90;;;;;;5034400;28;20440;-66
2024/01/16 09:40:50;;;;;;;8.13;3.42;;;-1.70;99.90;;;;;;5034336;28;20041;-65
2024/01/16 09:43:17;;;;;;;10.13;2.92;;;-1.70;99.90;;;;;;5034124;28;20030;-65
2024/01/16 09:45:44;;;;;;;6.95;3.00;;;-1.70;99.90;;;;;;5034212;28;20370;-66
2024/01/16 09:48:11;;;;;;;7.55;2.80;;;-1.60;99.90;;;;;;5034123;28;20046;-66
2024/01/16 09:50:38;;;;;;;8.48;2.83;;;-1.50;99.90;;;;;;5034027;28;20048;-66
2024/01/16 09:53:04;;;;;;;7.15;3.20;;;-1.50;99.90;;;;;;5032553;28;20044;-65
2024/01/16 09:55:31;;;;;;;8.50;2.97;;;-1.40;99.90;;;;;;5033596;28;20092;-66
2024/01/16 09:57:58;;;;;;;8.23;2.63;;;-1.30;99.90;;;;;;5033927;28;20045;-66
2024/01/16 10:00:25;;;;;;;5.05;2.40;;;-1.20;99.90;;;;;;5034060;28;20034;-66
2024/01/16 10:02:52;;;;;;;4.97;2.50;;;-1.10;99.90;;;;;;5033619;28;20061;-65
2024/01/16 10:05:19;;;;;;;4.45;2.28;;;-1.00;99.90;;;;;;5033913;28;20112;-66
2024/01/16 10:07:47;;;;;;;8.45;2.70;;;-0.90;99.90;;;;;;5033698;28;20049;-65
2024/01/16 10:10:14;;;;;;;7.68;2.80;;;-0.80;99.90;;;;;;5033793;28;20045;-66
2024/01/16 10:12:52;;;;;;;3.10;1.90;;;-0.70;99.90;;;;;;5033853;28;20069;-65
2024/01/16 10:15:19;;;;;;;8.80;2.40;;;-0.60;99.90;;;;;;5033724;28;20088;-65
2024/01/16 10:17:45;;;;;;;5.70;2.22;;;-0.50;99.90;;;;;;5033923;28;20056;-66
2024/01/16 10:20:13;;;;;;;10.57;2.50;;;-0.40;99.90;;;;;;5033171;28;20100;-66
2024/01/16 10:22:41;;;;;;;6.47;2.55;;;-0.30;99.90;;;;;;5033469;28;20047;-66
2024/01/16 10:25:08;;;;;;;8.88;2.55;;;-0.20;99.90;;;;;;5033269;28;20103;-65
2024/01/16 10:27:35;;;;;;;6.38;2.00;;;-0.10;99.90;;;;;;5032289;28;20091;-66
2024/01/16 10:30:02;;;;;;;5.57;2.55;;;0.00;99.90;;;;;;5033367;28;20048;-66
2024/01/16 10:32:30;;;;;;;6.70;2.75;;;0.10;99.90;;;;;;5032941;28;20403;-64
2024/01/16 10:34:57;;;;;;;6.72;2.60;;;0.20;99.90;;;;;;5033026;28;20382;-65
2024/01/16 10:37:24;;;;;;;6.35;2.80;;;0.20;99.90;;;;;;5033451;28;20053;-64
2024/01/16 10:39:50;;;;;;;6.95;3.17;;;0.30;99.90;;;;;;5033515;28;20371;-65
2024/01/16 10:42:20;;;;;;;8.10;4.38;;;0.40;99.90;;;;;;5033128;28;20120;-66
2024/01/16 10:44:47;;;;;;;13.65;6.40;;;0.40;99.90;;;;;;5033011;28;20502;-65
2024/01/16 10:47:15;;;;;;;15.07;6.88;;;0.40;99.90;;;;;;5033366;28;20467;-65
2024/01/16 10:49:42;;;;;;;9.55;4.10;;;0.50;99.90;;;;;;5033184;28;20045;-64
2024/01/16 10:52:12;;;;;;;8.25;2.95;;;0.50;99.90;;;;;;5032892;28;20045;-65
2024/01/16 10:54:39;;;;;;;8.40;2.15;;;0.60;99.90;;;;;;5033103;28;20041;-64
2024/01/16 10:57:06;;;;;;;11.90;2.30;;;0.70;99.90;;;;;;5033288;28;20111;-65
2024/01/16 10:59:34;;;;;;;9.15;2.42;;;0.70;99.90;;;;;;5032883;28;20045;-65
2024/01/16 11:02:01;;;;;;;9.73;2.38;;;0.70;99.90;;;;;;5032866;28;20048;-65
2024/01/16 11:04:28;;;;;;;5.30;2.03;;;0.80;99.90;;;;;;5032574;28;20111;-64
2024/01/16 11:06:54;;;;;;;4.60;2.10;;;0.80;99.90;;;;;;5032770;28;20034;-65
2024/01/16 11:09:21;;;;;;;6.07;1.92;;;0.90;99.90;;;;;;5033201;28;20055;-64
2024/01/16 11:11:48;;;;;;;4.15;1.67;;;1.00;99.90;;;;;;5033111;28;20126;-65
2024/01/16 11:14:15;;;;;;;6.93;1.95;;;1.00;99.90;;;;;;5032849;28;20055;-65
2024/01/16 11:16:42;;;;;;;7.57;2.20;;;1.10;99.90;;;;;;5033075;28;20128;-65
2024/01/16 11:19:09;;;;;;;3.40;1.67;;;1.20;99.90;;;;;;5032940;28;20060;-64
2024/01/16 11:21:56;;;;;;;4.32;1.85;;;1.20;99.90;;;;;;5033006;28;20033;-65
2024/01/16 11:24:23;;;;;;;6.53;1.85;;;1.30;99.90;;;;;;5032693;28;20037;-65
2024/01/16 11:26:49;;;;;;;4.88;1.58;;;1.40;99.90;;;;;;5036586;28;20124;-65
2024/01/16 11:29:16;;;;;;;6.75;1.42;;;1.50;99.90;;;;;;5036654;28;20049;-65
2024/01/16 11:31:43;;;;;;;6.22;1.70;;;1.50;99.90;;;;;;5036522;28;20120;-65
2024/01/16 11:34:10;;;;;;;6.82;1.85;;;1.50;99.90;;;;;;5036735;28;20489;-65
2024/01/16 11:36:37;;;;;;;4.15;1.80;;;1.60;99.90;;;;;;5036589;28;20069;-65
2024/01/16 11:39:05;;;;;;;3.25;1.13;;;1.70;99.90;;;;;;5036145;28;20435;-65
2024/01/16 11:41:32;;;;;;;5.07;1.60;;;1.80;99.90;;;;;;5036772;28;20124;-65
2024/01/16 11:44:08;;;;;;;3.53;1.42;;;1.80;99.90;;;;;;5036502;28;20510;-64
2024/01/16 11:46:35;;;;;;;6.95;1.58;;;1.90;99.90;;;;;;5036893;28;20041;-65
2024/01/16 11:49:02;;;;;;;3.90;1.63;;;1.90;99.90;;;;;;5036481;28;20133;-65
2024/01/16 11:51:29;;;;;;;5.35;1.90;;;1.90;99.90;;;;;;5036342;28;20045;-65
2024/01/16 11:53:56;;;;;;;5.38;1.80;;;1.90;99.90;;;;;;5035140;28;20068;-65
2024/01/16 11:56:23;;;;;;;7.88;2.75;;;2.00;99.90;;;;;;5036061;28;20052;-65
2024/01/16 11:59:07;;;;;;;10.30;2.85;;;2.00;99.90;;;;;;5036301;28;20055;-65
2024/01/16 12:01:34;;;;;;;5.50;1.75;;;2.10;99.90;;;;;;5036217;28;20044;-65
2024/01/16 12:04:00;;;;;;;6.38;1.92;;;2.10;99.90;;;;;;5036586;28;20045;-65
2024/01/16 12:06:27;;;;;;;5.10;1.95;;;2.20;99.90;;;;;;5036681;28;20057;-65
2024/01/16 12:08:54;;;;;;;7.60;2.08;;;2.10;99.90;;;;;;5036371;28;20045;-65
2024/01/16 12:11:21;;;;;;;5.78;2.05;;;2.20;99.90;;;;;;5034521;28;20111;-65
2024/01/16 12:13:55;;;;;;;7.28;2.25;;;2.20;99.90;;;;;;5034810;28;20041;-64
2024/01/16 12:16:22;;;;;;;4.68;2.25;;;2.20;99.90;;;;;;5036139;28;20475;-65
2024/01/16 12:18:49;;;;;;;7.40;2.35;;;2.20;99.90;;;;;;5036339;28;20065;-65
2024/01/16 12:21:16;;;;;;;11.95;2.47;;;2.30;99.90;;;;;;5035752;28;20545;-65
2024/01/16 12:23:43;;;;;;;5.68;2.50;;;2.20;99.90;;;;;;5036011;28;20096;-65
2024/01/16 12:26:22;;;;;;;9.25;2.67;;;2.30;99.90;;;;;;5035670;28;20095;-65
2024/01/16 12:28:48;;;;;;;8.52;3.13;;;2.30;99.90;;;;;;5036396;28;20069;-65
2024/01/16 12:31:15;;;;;;;7.32;2.65;;;2.40;99.90;;;;;;5035497;28;20065;-65
2024/01/16 12:33:42;;;;;;;8.05;2.38;;;2.50;99.90;;;;;;5035305;28;20041;-65
2024/01/16 12:36:23;;;;;;;6.63;2.40;;;2.60;99.90;;;;;;5034241;28;20546;-64
2024/01/16 12:38:50;;;;;;;6.95;2.58;;;2.50;99.90;;;;;;5035418;28;20065;-65
2024/01/16 12:41:20;;;;;;;9.02;3.10;;;2.50;99.90;;;;;;5035109;28;20133;-64
2024/01/16 12:43:55;;;;;;;9.52;2.67;;;2.60;99.90;;;;;;5034969;28;20041;-65